createdAt,value
2018-03-01T00:01:29.834Z,17.73
2018-03-01T00:03:59.706Z,21.00
2018-03-01T00:06:28.767Z,17.63
2018-03-01T00:08:57.832Z,18.83
2018-03-01T00:11:26.925Z,17.70
2018-03-01T00:13:56.796Z,18.47
2018-03-01T00:16:25.847Z,17.77
2018-03-01T00:18:55.690Z,17.13
2018-03-01T00:21:24.758Z,18.40
2018-03-01T00:23:54.607Z,18.53
2018-03-01T00:26:23.693Z,20.50
2018-03-01T00:28:52.785Z,18.33
2018-03-01T00:31:21.869Z,18.97
2018-03-01T00:33:51.011Z,19.10
2018-03-01T00:36:20.232Z,15.50
2018-03-01T00:38:49.326Z,17.50
2018-03-01T00:41:18.402Z,16.20
2018-03-01T00:43:47.508Z,17.80
2018-03-01T00:46:16.617Z,17.97
2018-03-01T00:48:45.726Z,19.07
2018-03-01T00:51:16.504Z,16.97
2018-03-01T00:53:45.580Z,18.73
2018-03-01T00:56:14.671Z,16.97
2018-03-01T00:58:43.751Z,18.13
2018-03-01T01:01:12.851Z,17.50
2018-03-01T01:03:42.674Z,18.40
2018-03-01T01:06:11.782Z,18.43
2018-03-01T01:08:40.843Z,18.27
2018-03-01T01:11:09.953Z,17.30
2018-03-01T01:13:39.054Z,18.40
2018-03-01T01:16:08.131Z,17.47
2018-03-01T01:18:37.969Z,19.03
2018-03-01T01:21:07.026Z,17.60
2018-03-01T01:23:36.857Z,19.57
2018-03-01T01:26:05.915Z,17.33
2018-03-01T01:28:34.990Z,17.70
2018-03-01T01:31:04.079Z,16.20
2018-03-01T01:33:33.152Z,17.97
2018-03-01T01:36:02.226Z,17.93
2018-03-01T01:38:31.280Z,17.53
2018-03-01T01:41:00.368Z,17.60
2018-03-01T01:43:29.467Z,16.20
2018-03-01T01:45:58.530Z,17.90
2018-03-01T01:48:27.668Z,19.37
2018-03-01T01:51:04.414Z,17.00
2018-03-01T01:53:34.231Z,17.30
2018-03-01T01:56:03.313Z,18.60
2018-03-01T01:58:32.367Z,16.90
2018-03-01T02:01:02.222Z,16.50
2018-03-01T02:03:31.301Z,18.83
2018-03-01T02:06:00.351Z,16.77
2018-03-01T02:08:30.203Z,18.73
2018-03-01T02:10:59.254Z,18.90
2018-03-01T02:13:29.104Z,18.77
2018-03-01T02:15:58.173Z,19.10
2018-03-01T02:18:27.254Z,17.07
2018-03-01T02:20:56.300Z,18.30
2018-03-01T02:23:25.398Z,17.80
2018-03-01T02:25:54.472Z,19.20
2018-03-01T02:28:24.416Z,18.30
2018-03-01T02:30:53.470Z,18.57
2018-03-01T02:33:22.552Z,17.93
2018-03-01T02:35:51.613Z,19.07
2018-03-01T02:38:20.705Z,19.90
2018-03-01T02:40:49.773Z,18.80
2018-03-01T02:43:18.843Z,19.00
2018-03-01T02:45:47.979Z,21.07
2018-03-01T02:48:17.033Z,21.13
2018-03-01T02:50:46.890Z,20.40
2018-03-01T02:53:15.944Z,19.57
2018-03-01T02:55:45.024Z,19.10
2018-03-01T02:58:14.865Z,20.77
2018-03-01T03:00:43.939Z,19.00
2018-03-01T03:03:13.788Z,21.50
2018-03-01T03:05:42.868Z,19.03
2018-03-01T03:08:11.954Z,19.50
2018-03-01T03:10:41.068Z,18.57
2018-03-01T03:13:10.868Z,18.60
2018-03-01T03:15:39.926Z,18.50
2018-03-01T03:18:09.011Z,18.60
2018-03-01T03:20:38.073Z,18.03
2018-03-01T03:23:07.153Z,20.10
2018-03-01T03:25:36.262Z,18.57
2018-03-01T03:28:05.307Z,18.80
2018-03-01T03:30:34.539Z,20.20
2018-03-01T03:33:03.596Z,20.70
2018-03-01T03:35:32.655Z,20.50
2018-03-01T03:38:01.772Z,20.77
2018-03-01T03:40:30.825Z,20.80
2018-03-01T03:42:59.891Z,17.87
2018-03-01T03:45:29.747Z,18.37
2018-03-01T03:47:58.795Z,19.30
2018-03-01T03:50:27.859Z,18.00
2018-03-01T03:52:56.990Z,19.43
2018-03-01T03:55:26.811Z,20.33
2018-03-01T03:57:55.876Z,19.60
2018-03-01T04:00:25.000Z,18.13
2018-03-01T04:02:54.059Z,20.03
2018-03-01T04:05:23.119Z,20.70
2018-03-01T04:07:52.248Z,20.60
2018-03-01T04:10:21.307Z,21.13
2018-03-01T04:12:51.144Z,18.47
2018-03-01T04:15:20.266Z,17.97
2018-03-01T04:17:50.183Z,19.60
2018-03-01T04:20:19.232Z,18.90
2018-03-01T04:22:48.451Z,19.93
2018-03-01T04:25:17.510Z,21.37
2018-03-01T04:27:46.570Z,21.73
2018-03-01T04:30:16.423Z,19.57
2018-03-01T04:32:45.489Z,18.40
2018-03-01T04:35:14.583Z,20.87
2018-03-01T04:37:43.658Z,18.37
2018-03-01T04:40:12.732Z,20.30
2018-03-01T04:42:41.839Z,20.57
2018-03-01T04:45:11.294Z,19.57
2018-03-01T04:47:40.405Z,21.87
2018-03-01T04:50:09.495Z,18.80
2018-03-01T04:52:38.592Z,19.30
2018-03-01T04:55:07.628Z,20.17
2018-03-01T04:57:37.502Z,18.67
2018-03-01T05:00:06.616Z,22.17
2018-03-01T05:02:35.675Z,21.60
2018-03-01T05:05:04.818Z,20.13
2018-03-01T05:07:33.908Z,20.00
2018-03-01T05:10:02.967Z,19.17
2018-03-01T05:12:32.071Z,21.07
2018-03-01T05:15:01.156Z,19.13
2018-03-01T05:17:30.988Z,24.00
2018-03-01T05:20:01.073Z,23.07
2018-03-01T05:22:30.159Z,24.77
2018-03-01T05:24:59.261Z,24.27
2018-03-01T05:27:28.337Z,22.70
2018-03-01T05:29:57.408Z,30.80
2018-03-01T05:32:26.490Z,39.90
2018-03-01T05:34:55.551Z,31.67
2018-03-01T05:37:24.670Z,36.50
2018-03-01T05:39:53.716Z,29.60
2018-03-01T05:42:22.808Z,20.10
2018-03-01T05:44:51.919Z,20.47
2018-03-01T05:47:20.974Z,20.27
2018-03-01T05:49:50.834Z,17.90
2018-03-01T05:52:19.894Z,21.10
2018-03-01T05:54:49.704Z,20.17
2018-03-01T05:57:19.590Z,20.93
2018-03-01T05:59:49.428Z,20.23
2018-03-01T06:02:19.290Z,28.20
2018-03-01T06:04:48.420Z,20.13
2018-03-01T06:07:17.488Z,20.67
2018-03-01T06:09:46.539Z,19.77
2018-03-01T06:12:15.609Z,19.60
2018-03-01T06:14:44.711Z,18.57
2018-03-01T06:17:14.560Z,22.20
2018-03-01T06:19:43.646Z,28.17
2018-03-01T06:22:12.703Z,19.30
2018-03-01T06:24:41.852Z,20.97
2018-03-01T06:27:10.929Z,21.47
2018-03-01T06:29:40.232Z,20.03
2018-03-01T06:32:09.307Z,19.07
2018-03-01T06:34:39.131Z,19.90
2018-03-01T06:37:08.299Z,21.20
2018-03-01T06:39:37.346Z,19.47
2018-03-01T06:42:06.492Z,20.30
2018-03-01T06:44:35.621Z,22.30
2018-03-01T06:47:04.689Z,20.10
2018-03-01T06:49:34.526Z,20.57
2018-03-01T06:52:03.832Z,52.37
2018-03-01T06:54:32.931Z,35.77
2018-03-01T06:57:01.994Z,21.37
2018-03-01T06:59:31.897Z,20.70
2018-03-01T07:02:00.978Z,20.17
2018-03-01T07:04:30.046Z,19.27
2018-03-01T07:06:59.195Z,20.83
2018-03-01T07:09:29.045Z,20.73
2018-03-01T07:11:58.124Z,21.70
2018-03-01T07:14:27.316Z,21.20
2018-03-01T07:16:56.431Z,22.87
2018-03-01T07:19:26.223Z,22.03
2018-03-01T07:21:55.307Z,20.10
2018-03-01T07:24:25.120Z,22.43
2018-03-01T07:26:54.992Z,22.37
2018-03-01T07:29:24.051Z,22.80
2018-03-01T07:31:53.180Z,21.40
2018-03-01T07:34:22.449Z,19.90
2018-03-01T07:36:51.552Z,20.33
2018-03-01T07:39:20.620Z,20.43
2018-03-01T07:41:49.745Z,21.40
2018-03-01T07:44:18.799Z,24.07
2018-03-01T07:46:48.641Z,20.80
2018-03-01T07:49:17.762Z,21.43
2018-03-01T07:51:46.815Z,22.70
2018-03-01T07:54:15.872Z,23.60
2018-03-01T07:56:45.425Z,22.10
2018-03-01T07:59:14.477Z,20.50
2018-03-01T08:01:43.535Z,24.07
2018-03-01T08:04:12.669Z,23.73
2018-03-01T08:06:41.723Z,21.80
2018-03-01T08:09:10.776Z,21.50
2018-03-01T08:11:39.895Z,21.90
2018-03-01T08:14:08.943Z,21.87
2018-03-01T08:16:38.003Z,21.43
2018-03-01T08:19:08.024Z,21.67
2018-03-01T08:21:37.587Z,22.63
2018-03-01T08:24:07.447Z,22.40
2018-03-01T08:26:36.567Z,20.90
2018-03-01T08:29:05.631Z,22.57
2018-03-01T08:31:34.697Z,22.10
2018-03-01T08:34:04.965Z,19.97
2018-03-01T08:36:34.074Z,24.50
2018-03-01T08:39:03.131Z,23.40
2018-03-01T08:41:32.278Z,23.13
2018-03-01T08:44:01.324Z,30.70
2018-03-01T08:46:30.388Z,24.07
2018-03-01T08:48:59.536Z,22.03
2018-03-01T08:51:28.577Z,24.20
2018-03-01T08:53:57.673Z,21.50
2018-03-01T08:56:26.904Z,51.30
2018-03-01T08:58:55.959Z,27.50
2018-03-01T09:01:25.832Z,23.80
2018-03-01T09:03:54.885Z,23.87
2018-03-01T09:06:23.928Z,24.20
2018-03-01T09:08:52.985Z,20.90
2018-03-01T09:11:22.073Z,21.17
2018-03-01T09:13:51.248Z,24.07
2018-03-01T09:16:20.257Z,22.60
2018-03-01T09:18:49.310Z,24.50
2018-03-01T09:21:18.393Z,25.60
2018-03-01T09:23:47.465Z,24.90
2018-03-01T09:26:16.514Z,25.30
2018-03-01T09:28:45.603Z,27.53
2018-03-01T09:31:15.427Z,26.70
2018-03-01T09:33:44.554Z,26.80
2018-03-01T09:36:13.647Z,26.47
2018-03-01T09:38:42.703Z,28.70
2018-03-01T09:41:12.536Z,28.27
2018-03-01T09:43:41.623Z,25.50
2018-03-01T09:46:11.851Z,27.93
2018-03-01T09:48:40.912Z,26.33
2018-03-01T09:51:15.562Z,24.77
2018-03-01T09:53:44.651Z,29.57
2018-03-01T09:56:13.753Z,27.07
2018-03-01T09:58:43.019Z,26.60
2018-03-01T10:01:12.085Z,34.47
2018-03-01T10:03:41.136Z,28.43
2018-03-01T10:06:10.219Z,30.00
2018-03-01T10:08:40.038Z,28.23
2018-03-01T10:11:09.260Z,27.80
2018-03-01T10:13:38.331Z,28.63
2018-03-01T10:16:08.155Z,26.63
2018-03-01T10:18:37.243Z,25.30
2018-03-01T10:21:06.295Z,25.17
2018-03-01T10:23:35.399Z,25.80
2018-03-01T10:26:04.485Z,24.20
2018-03-01T10:28:39.461Z,24.97
2018-03-01T10:31:08.512Z,23.13
2018-03-01T10:33:43.126Z,23.87
2018-03-01T10:36:12.181Z,24.60
2018-03-01T10:38:41.270Z,26.00
2018-03-01T10:41:11.123Z,23.83
2018-03-01T10:43:40.203Z,24.13
2018-03-01T10:46:09.286Z,24.27
2018-03-01T10:48:38.355Z,22.33
2018-03-01T10:51:08.258Z,21.83
2018-03-01T10:53:37.300Z,20.20
2018-03-01T10:56:06.380Z,19.50
2018-03-01T10:58:35.433Z,19.90
2018-03-01T11:01:19.126Z,18.23
2018-03-01T11:03:48.177Z,19.20
2018-03-01T11:06:18.001Z,19.67
2018-03-01T11:08:47.101Z,17.93
2018-03-01T11:11:16.157Z,18.63
2018-03-01T11:13:45.434Z,19.60
2018-03-01T11:16:14.552Z,15.80
2018-03-01T11:18:43.609Z,13.93
2018-03-01T11:21:12.680Z,13.00
2018-03-01T11:23:41.747Z,13.60
2018-03-01T11:26:11.582Z,16.40
2018-03-01T11:28:40.678Z,15.20
2018-03-01T11:31:09.749Z,16.20
2018-03-01T11:33:38.842Z,14.50
2018-03-01T11:36:07.902Z,20.90
2018-03-01T11:38:36.975Z,17.43
2018-03-01T11:41:06.061Z,15.87
2018-03-01T11:43:35.138Z,14.23
2018-03-01T11:46:04.992Z,13.30
2018-03-01T11:48:34.070Z,15.33
2018-03-01T11:51:03.147Z,14.00
2018-03-01T11:53:32.215Z,14.93
2018-03-01T11:56:01.388Z,15.30
2018-03-01T11:58:30.450Z,17.40
2018-03-01T12:00:59.505Z,18.57
2018-03-01T12:03:28.581Z,18.80
2018-03-01T12:05:57.687Z,19.30
2018-03-01T12:08:26.794Z,17.30
2018-03-01T12:10:56.615Z,17.70
2018-03-01T12:13:26.479Z,16.17
2018-03-01T12:15:55.526Z,17.17
2018-03-01T12:18:25.518Z,20.87
2018-03-01T12:20:54.558Z,17.90
2018-03-01T12:23:23.615Z,18.37
2018-03-01T12:25:52.728Z,17.07
2018-03-01T12:28:22.531Z,16.83
2018-03-01T12:30:52.403Z,17.47
2018-03-01T12:33:21.472Z,18.97
2018-03-01T12:35:50.543Z,18.07
2018-03-01T12:38:19.630Z,19.20
2018-03-01T12:40:49.491Z,17.80
2018-03-01T12:43:18.527Z,18.70
2018-03-01T12:45:48.364Z,17.10
2018-03-01T12:48:17.439Z,16.70
2018-03-01T12:50:47.265Z,17.97
2018-03-01T12:53:16.352Z,17.90
2018-03-01T12:55:46.196Z,16.47
2018-03-01T12:58:15.276Z,18.83
2018-03-01T13:00:44.333Z,19.03
2018-03-01T13:03:13.417Z,16.30
2018-03-01T13:05:42.511Z,15.83
2018-03-01T13:08:11.599Z,15.23
2018-03-01T13:10:43.046Z,15.87
2018-03-01T13:13:12.106Z,17.57
2018-03-01T13:15:41.207Z,16.87
2018-03-01T13:18:10.265Z,17.13
2018-03-01T13:20:40.093Z,17.43
2018-03-01T13:23:09.976Z,17.30
2018-03-01T13:25:39.046Z,16.60
2018-03-01T13:28:08.125Z,15.57
2018-03-01T13:30:38.156Z,15.70
2018-03-01T13:33:19.821Z,13.80
2018-03-01T13:35:48.958Z,15.43
2018-03-01T13:38:18.009Z,15.70
2018-03-01T13:40:47.094Z,15.50
2018-03-01T13:43:16.471Z,16.17
2018-03-01T13:45:46.503Z,16.80
2018-03-01T13:48:16.324Z,17.80
2018-03-01T13:50:45.419Z,16.77
2018-03-01T13:53:14.486Z,16.50
2018-03-01T13:55:43.539Z,16.20
2018-03-01T13:58:12.643Z,18.40
2018-03-01T14:00:41.747Z,15.43
2018-03-01T14:03:10.815Z,16.00
2018-03-01T14:05:40.718Z,17.27
2018-03-01T14:08:09.779Z,16.57
2018-03-01T14:10:39.646Z,15.23
2018-03-01T14:13:14.303Z,15.67
2018-03-01T14:15:43.391Z,15.30
2018-03-01T14:18:12.444Z,14.80
2018-03-01T14:34:04.524Z,14.30
2018-03-01T14:36:33.589Z,15.80
2018-03-01T14:39:02.675Z,16.67
2018-03-01T14:41:31.781Z,16.47
2018-03-01T14:44:00.867Z,15.87
2018-03-01T14:46:29.949Z,16.07
2018-03-01T14:48:59.020Z,16.00
2018-03-01T14:51:28.077Z,15.03
2018-03-01T14:53:57.149Z,15.23
2018-03-01T14:56:26.216Z,17.20
2018-03-01T14:58:55.297Z,14.13
2018-03-01T15:01:24.395Z,16.60
2018-03-01T15:03:53.459Z,16.33
2018-03-01T15:06:22.539Z,16.07
2018-03-01T15:08:51.672Z,17.67
2018-03-01T15:11:21.489Z,17.73
2018-03-01T15:13:50.657Z,15.90
2018-03-01T15:16:20.508Z,17.90
2018-03-01T15:18:49.575Z,17.90
2018-03-01T15:21:18.655Z,17.43
2018-03-01T15:23:48.186Z,17.80
2018-03-01T15:26:18.005Z,17.70
2018-03-01T15:28:47.069Z,17.40
2018-03-01T15:31:16.334Z,16.37
2018-03-01T15:33:45.460Z,18.10
2018-03-01T15:36:14.476Z,15.80
2018-03-01T15:38:44.686Z,17.53
2018-03-01T15:41:13.740Z,15.17
2018-03-01T15:43:42.792Z,16.20
2018-03-01T15:46:12.135Z,16.90
2018-03-01T15:48:41.193Z,16.90
2018-03-01T15:51:10.270Z,16.90
2018-03-01T15:53:40.219Z,16.80
2018-03-01T15:56:09.315Z,16.10
2018-03-01T15:58:38.375Z,15.10
2018-03-01T16:01:08.259Z,16.43
2018-03-01T16:03:37.301Z,16.53
2018-03-01T16:09:26.389Z,16.37
2018-03-01T16:11:55.480Z,17.30
2018-03-01T16:14:24.547Z,18.10
2018-03-01T16:16:54.375Z,16.80
2018-03-01T16:19:23.460Z,15.27
2018-03-01T16:21:53.312Z,17.00
2018-03-01T16:24:22.422Z,16.10
2018-03-01T16:26:51.466Z,17.37
2018-03-01T16:29:21.311Z,18.50
2018-03-01T16:31:51.002Z,17.10
2018-03-01T16:34:20.083Z,16.40
2018-03-01T16:36:49.903Z,16.73
2018-03-01T16:39:19.004Z,16.63
2018-03-01T16:41:48.063Z,18.97
2018-03-01T16:44:17.168Z,18.70
2018-03-01T16:46:46.994Z,39.73
2018-03-01T16:49:16.936Z,24.00
2018-03-01T16:51:46.005Z,26.50
2018-03-01T16:54:15.861Z,26.90
2018-03-01T16:56:45.708Z,18.33
2018-03-01T16:59:14.770Z,17.33
2018-03-01T17:01:43.881Z,17.37
2018-03-01T17:04:12.980Z,17.60
2018-03-01T17:06:42.082Z,19.80
2018-03-01T17:09:11.097Z,18.03
2018-03-01T17:11:40.974Z,17.27
2018-03-01T17:14:10.047Z,16.97
2018-03-01T17:16:39.099Z,18.07
2018-03-01T17:19:08.964Z,19.33
2018-03-01T17:21:38.041Z,18.80
2018-03-01T17:24:07.107Z,18.67
2018-03-01T17:26:36.170Z,19.77
2018-03-01T17:29:05.263Z,19.47
2018-03-01T17:31:34.347Z,23.00
2018-03-01T17:34:03.395Z,31.30
2018-03-01T17:36:32.501Z,19.97
2018-03-01T17:39:01.565Z,20.00
2018-03-01T17:41:31.529Z,21.60
2018-03-01T17:44:00.580Z,20.50
2018-03-01T17:46:30.417Z,20.40
2018-03-01T17:48:59.507Z,19.93
2018-03-01T17:51:28.573Z,21.30
2018-03-01T17:53:58.453Z,20.10
2018-03-01T17:56:27.563Z,17.93
2018-03-01T17:58:56.691Z,18.73
2018-03-01T18:01:26.550Z,20.50
2018-03-01T18:03:55.601Z,21.57
2018-03-01T18:06:25.476Z,20.37
2018-03-01T18:08:54.578Z,26.60
2018-03-01T18:11:23.683Z,34.93
2018-03-01T18:13:52.788Z,38.30
2018-03-01T18:16:21.899Z,40.20
2018-03-01T18:18:50.986Z,38.93
2018-03-01T18:21:20.807Z,35.23
2018-03-01T18:23:49.897Z,36.20
2018-03-01T18:26:18.994Z,36.37
2018-03-01T18:28:48.074Z,32.57
2018-03-01T18:31:17.171Z,37.10
2018-03-01T18:33:47.026Z,35.23
2018-03-01T18:36:16.101Z,39.17
2018-03-01T18:38:45.172Z,35.00
2018-03-01T18:41:15.000Z,35.73
2018-03-01T18:43:44.908Z,36.50
2018-03-01T18:46:15.735Z,34.37
2018-03-01T18:48:45.601Z,35.87
2018-03-01T18:51:14.732Z,32.60
2018-03-01T18:53:43.825Z,32.30
2018-03-01T18:56:12.917Z,33.80
2018-03-01T18:58:42.064Z,34.67
2018-03-01T19:01:11.128Z,35.03
2018-03-01T19:03:40.981Z,32.93
2018-03-01T19:06:10.022Z,32.73
2018-03-01T19:08:39.909Z,28.00
2018-03-01T19:11:08.988Z,29.57
2018-03-01T19:13:38.060Z,30.47
2018-03-01T19:16:07.145Z,29.27
2018-03-01T19:18:36.237Z,28.67
2018-03-01T19:21:05.342Z,29.67
2018-03-01T19:23:34.427Z,30.37
2018-03-01T19:26:03.531Z,31.17
2018-03-01T19:28:32.608Z,30.30
2018-03-01T19:31:02.568Z,30.60
2018-03-01T19:33:31.600Z,32.60
2018-03-01T19:36:01.504Z,32.27
2018-03-01T19:38:30.622Z,29.60
2018-03-01T19:40:59.709Z,29.80
2018-03-01T19:43:28.790Z,28.77
2018-03-01T19:45:57.876Z,29.87
2018-03-01T19:48:27.800Z,29.10
2018-03-01T19:50:56.924Z,29.63
2018-03-01T19:53:26.742Z,27.50
2018-03-01T19:55:55.846Z,30.63
2018-03-01T19:58:24.908Z,28.47
2018-03-01T20:00:54.031Z,47.47
2018-03-01T20:03:23.129Z,35.60
2018-03-01T20:05:52.197Z,32.73
2018-03-01T20:08:22.876Z,31.30
2018-03-01T20:10:52.034Z,31.90
2018-03-01T20:13:21.226Z,32.50
2018-03-01T20:15:50.419Z,33.57
2018-03-01T20:18:20.250Z,36.00
2018-03-01T20:20:50.106Z,33.57
2018-03-01T20:23:19.167Z,30.30
2018-03-01T20:25:48.239Z,30.37
2018-03-01T20:28:18.116Z,29.27
2018-03-01T20:30:47.176Z,29.13
2018-03-01T20:33:16.229Z,26.97
2018-03-01T20:35:45.664Z,28.87
2018-03-01T20:38:14.683Z,25.67
2018-03-01T20:40:43.850Z,28.17
2018-03-01T20:43:13.735Z,28.50
2018-03-01T20:45:42.806Z,29.80
2018-03-01T20:48:11.870Z,28.20
2018-03-01T20:50:41.023Z,25.37
2018-03-01T20:53:10.100Z,28.33
2018-03-01T20:55:39.158Z,31.00
2018-03-01T20:58:08.560Z,26.80
2018-03-01T21:00:37.607Z,30.00
2018-03-01T21:03:06.728Z,30.90
2018-03-01T21:05:35.780Z,30.00
2018-03-01T21:08:04.864Z,29.20
2018-03-01T21:10:33.931Z,32.97
2018-03-01T21:13:03.027Z,43.00
2018-03-01T21:15:32.201Z,31.97
2018-03-01T21:18:02.049Z,29.07
2018-03-01T21:20:31.126Z,31.40
2018-03-01T21:23:00.228Z,30.23
2018-03-01T21:25:29.292Z,31.70
2018-03-01T21:27:59.163Z,29.40
2018-03-01T21:30:28.242Z,29.97
2018-03-01T21:32:57.314Z,30.87
2018-03-01T21:35:27.165Z,30.83
2018-03-01T21:37:56.219Z,31.50
2018-03-01T21:40:25.316Z,30.43
2018-03-01T21:42:54.376Z,31.20
2018-03-01T21:45:23.505Z,28.40
2018-03-01T21:47:55.104Z,30.37
2018-03-01T21:50:24.195Z,29.33
2018-03-01T21:52:53.264Z,34.97
2018-03-01T21:55:22.366Z,37.13
2018-03-01T21:57:51.426Z,35.93
2018-03-01T22:00:20.519Z,39.00
2018-03-01T22:02:50.362Z,38.53
2018-03-01T22:05:19.446Z,36.60
2018-03-01T22:07:48.535Z,35.60
2018-03-01T22:10:17.583Z,34.13
2018-03-01T22:12:46.718Z,28.93
2018-03-01T22:15:18.455Z,31.37
2018-03-01T22:17:48.576Z,32.37
2018-03-01T22:20:18.415Z,32.30
2018-03-01T22:22:47.465Z,32.00
2018-03-01T22:25:16.599Z,32.77
2018-03-01T22:27:45.917Z,31.40
2018-03-01T22:30:14.971Z,30.83
2018-03-01T22:32:48.076Z,33.57
2018-03-01T22:35:17.143Z,34.07
2018-03-01T22:37:46.447Z,34.93
2018-03-01T22:40:15.535Z,35.60
2018-03-01T22:42:44.598Z,35.10
2018-03-01T22:45:13.724Z,32.63
2018-03-01T22:47:42.784Z,46.93
2018-03-01T22:50:11.939Z,48.50
2018-03-01T22:52:42.004Z,45.37
2018-03-01T22:55:11.132Z,39.67
2018-03-01T22:57:41.664Z,45.40
2018-03-01T23:00:10.783Z,37.50
2018-03-01T23:02:40.661Z,32.47
2018-03-01T23:05:10.645Z,35.17
2018-03-01T23:07:39.715Z,34.77
2018-03-01T23:10:08.785Z,38.87
2018-03-01T23:12:37.892Z,43.43
2018-03-01T23:15:06.943Z,45.83
2018-03-01T23:17:36.157Z,37.87
2018-03-01T23:20:05.206Z,39.57
2018-03-01T23:22:34.267Z,46.60
2018-03-01T23:25:04.124Z,46.80
2018-03-01T23:27:33.214Z,42.17
2018-03-01T23:30:02.296Z,41.87
2018-03-01T23:32:31.356Z,39.17
2018-03-01T23:35:00.431Z,35.80
2018-03-01T23:37:29.512Z,40.13
2018-03-01T23:39:58.579Z,40.20
2018-03-01T23:42:27.660Z,37.13
2018-03-01T23:44:56.723Z,42.20
2018-03-01T23:47:25.820Z,44.13
2018-03-01T23:49:54.872Z,35.47
2018-03-01T23:52:23.937Z,35.30
2018-03-01T23:54:53.030Z,34.20
2018-03-01T23:57:22.847Z,30.83
2018-03-01T23:59:51.898Z,33.07
